createdAt,value
2022-10-09T00:01:31.092Z,98.40
2022-10-09T00:04:00.801Z,98.50
2022-10-09T00:06:30.986Z,98.50
2022-10-09T00:09:00.255Z,98.40
2022-10-09T00:11:31.608Z,98.40
2022-10-09T00:14:00.817Z,98.40
2022-10-09T00:16:29.373Z,98.40
2022-10-09T00:18:57.996Z,98.50
2022-10-09T00:21:28.138Z,98.50
2022-10-09T00:23:58.784Z,98.50
2022-10-09T00:26:29.479Z,98.40
2022-10-09T00:28:58.190Z,98.50
2022-10-09T00:31:26.658Z,98.50
2022-10-09T00:33:55.011Z,98.60
2022-10-09T00:36:25.331Z,98.60
2022-10-09T00:38:55.873Z,98.60
2022-10-09T00:41:26.608Z,98.60
2022-10-09T00:43:59.037Z,98.60
2022-10-09T00:46:34.746Z,98.60
2022-10-09T00:49:11.557Z,98.70
2022-10-09T00:51:40.463Z,98.70
2022-10-09T00:54:13.106Z,98.80
2022-10-09T00:56:41.549Z,98.90
2022-10-09T00:59:12.021Z,98.90
2022-10-09T01:01:41.766Z,99.00
2022-10-09T01:04:10.270Z,99.00
2022-10-09T01:06:50.599Z,99.40
2022-10-09T01:09:22.485Z,99.10
2022-10-09T01:11:57.219Z,99.10
2022-10-09T01:14:30.884Z,99.10
2022-10-09T01:17:05.051Z,99.00
2022-10-09T01:19:47.512Z,99.10
2022-10-09T01:22:30.171Z,99.00
2022-10-09T01:25:06.432Z,99.10
2022-10-09T01:27:38.812Z,99.10
2022-10-09T01:30:09.891Z,99.10
2022-10-09T01:32:43.126Z,99.20
2022-10-09T01:35:14.066Z,99.20
2022-10-09T01:37:44.474Z,99.30
2022-10-09T01:40:16.818Z,99.30
2022-10-09T01:42:47.972Z,99.40
2022-10-09T01:45:16.956Z,99.40
2022-10-09T01:47:45.433Z,99.50
2022-10-09T01:50:18.872Z,99.50
2022-10-09T01:52:51.823Z,99.50
2022-10-09T01:55:37.621Z,99.50
2022-10-09T01:58:14.906Z,99.60
2022-10-09T02:00:47.955Z,99.70
2022-10-09T02:03:17.703Z,99.70
2022-10-09T02:05:49.036Z,99.80
2022-10-09T02:08:20.521Z,99.80
2022-10-09T02:10:51.627Z,99.80
2022-10-09T02:13:22.511Z,99.80
2022-10-09T02:15:55.142Z,99.80
2022-10-09T02:18:32.084Z,99.90
2022-10-09T02:21:07.839Z,99.90
2022-10-09T02:23:38.507Z,99.90
2022-10-09T02:26:08.125Z,99.80
2022-10-09T02:28:41.392Z,99.80
2022-10-09T02:31:18.754Z,99.90
2022-10-09T02:33:47.368Z,99.90
2022-10-09T02:36:15.686Z,99.90
2022-10-09T02:38:43.999Z,99.90
2022-10-09T02:41:12.284Z,99.90
2022-10-09T02:43:41.992Z,99.90
2022-10-09T02:46:10.346Z,99.90
2022-10-09T02:48:38.749Z,99.90
2022-10-09T02:51:07.219Z,99.90
2022-10-09T02:53:35.827Z,99.90
2022-10-09T02:56:04.203Z,99.90
2022-10-09T02:58:33.030Z,99.90
2022-10-09T03:01:02.816Z,99.90
2022-10-09T03:03:31.058Z,99.90
2022-10-09T03:06:02.926Z,99.90
2022-10-09T03:08:31.630Z,99.90
2022-10-09T03:11:00.223Z,99.90
2022-10-09T03:13:28.814Z,99.90
2022-10-09T03:16:03.177Z,99.90
2022-10-09T03:18:33.262Z,99.90
2022-10-09T03:21:01.597Z,99.90
2022-10-09T03:23:29.964Z,99.90
2022-10-09T03:25:59.060Z,99.90
2022-10-09T03:28:28.185Z,99.90
2022-10-09T03:30:57.483Z,99.90
2022-10-09T03:33:25.810Z,99.90
2022-10-09T03:35:55.570Z,99.90
2022-10-09T03:38:24.017Z,99.90
2022-10-09T03:40:52.582Z,99.90
2022-10-09T03:43:21.020Z,99.90
2022-10-09T03:45:49.290Z,99.90
2022-10-09T03:48:17.544Z,99.90
2022-10-09T03:50:45.909Z,99.90
2022-10-09T03:53:16.343Z,99.90
2022-10-09T03:55:45.626Z,99.90
2022-10-09T03:58:14.032Z,99.90
2022-10-09T04:00:45.402Z,99.90
2022-10-09T04:03:14.104Z,99.90
2022-10-09T04:05:42.393Z,99.90
2022-10-09T04:08:10.680Z,99.90
2022-10-09T04:10:40.413Z,99.90
2022-10-09T04:13:08.807Z,99.90
2022-10-09T04:15:37.769Z,99.90
2022-10-09T04:18:06.622Z,99.90
2022-10-09T04:20:34.976Z,99.90
2022-10-09T04:23:03.259Z,99.90
2022-10-09T04:25:31.958Z,99.90
2022-10-09T04:28:01.660Z,99.90
2022-10-09T04:30:30.049Z,99.90
2022-10-09T04:32:58.294Z,99.90
2022-10-09T04:35:26.670Z,99.90
2022-10-09T04:37:54.969Z,99.90
2022-10-09T04:40:23.282Z,99.90
2022-10-09T04:42:51.836Z,99.90
2022-10-09T04:45:21.760Z,99.90
2022-10-09T04:47:50.057Z,99.90
2022-10-09T04:50:18.610Z,99.90
2022-10-09T04:52:47.107Z,99.90
2022-10-09T04:55:15.770Z,99.90
2022-10-09T04:57:44.019Z,99.90
2022-10-09T05:00:13.836Z,99.90
2022-10-09T05:02:43.500Z,99.90
2022-10-09T05:05:11.830Z,99.90
2022-10-09T05:07:40.134Z,99.90
2022-10-09T05:10:09.475Z,99.90
2022-10-09T05:12:37.730Z,99.90
2022-10-09T05:15:07.632Z,99.90
2022-10-09T05:17:36.075Z,99.90
2022-10-09T05:20:06.811Z,99.90
2022-10-09T05:22:35.313Z,99.90
2022-10-09T05:25:03.906Z,99.90
2022-10-09T05:27:32.292Z,99.90
2022-10-09T05:30:00.606Z,99.90
2022-10-09T05:32:28.910Z,99.90
2022-10-09T05:34:57.199Z,99.90
2022-10-09T05:37:26.922Z,99.90
2022-10-09T05:39:55.214Z,99.90
2022-10-09T05:42:23.504Z,99.90
2022-10-09T05:44:51.892Z,99.90
2022-10-09T05:47:20.159Z,99.90
2022-10-09T05:49:48.445Z,99.90
2022-10-09T05:52:16.706Z,99.90
2022-10-09T05:54:46.401Z,99.90
2022-10-09T05:57:14.668Z,99.90
2022-10-09T05:59:43.079Z,99.90
2022-10-09T06:02:11.394Z,99.90
2022-10-09T06:04:39.769Z,99.90
2022-10-09T06:07:08.081Z,99.90
2022-10-09T06:09:36.411Z,99.90
2022-10-09T06:12:06.243Z,99.90
2022-10-09T06:14:34.555Z,99.90
2022-10-09T06:17:02.878Z,99.90
2022-10-09T06:19:31.245Z,99.90
2022-10-09T06:21:59.566Z,99.90
2022-10-09T06:24:29.342Z,99.90
2022-10-09T06:26:58.244Z,99.90
2022-10-09T06:29:28.114Z,99.90
2022-10-09T06:31:56.447Z,99.90
2022-10-09T06:34:24.872Z,99.90
2022-10-09T06:36:53.172Z,99.90
2022-10-09T06:39:22.611Z,99.90
2022-10-09T06:41:50.882Z,99.90
2022-10-09T06:44:19.378Z,99.90
2022-10-09T06:46:51.186Z,99.90
2022-10-09T06:49:19.690Z,99.90
2022-10-09T06:51:48.114Z,99.90
2022-10-09T06:54:17.591Z,99.90
2022-10-09T06:56:46.335Z,99.90
2022-10-09T06:59:14.969Z,99.90
2022-10-09T07:01:43.516Z,99.90
2022-10-09T07:04:15.296Z,99.90
2022-10-09T07:06:45.891Z,99.90
2022-10-09T07:09:16.151Z,99.90
2022-10-09T07:11:45.981Z,99.90
2022-10-09T07:14:16.089Z,99.90
2022-10-09T07:16:46.234Z,99.90
2022-10-09T07:19:17.860Z,99.90
2022-10-09T07:21:48.469Z,99.90
2022-10-09T07:24:18.228Z,99.90
2022-10-09T07:26:48.327Z,99.90
2022-10-09T07:29:19.191Z,99.90
2022-10-09T07:31:47.491Z,99.90
2022-10-09T07:34:17.389Z,99.90
2022-10-09T07:36:45.727Z,99.90
2022-10-09T07:39:14.492Z,99.90
2022-10-09T07:41:43.423Z,99.90
2022-10-09T07:44:12.270Z,99.90
2022-10-09T07:46:40.659Z,99.90
2022-10-09T07:49:08.988Z,99.90
2022-10-09T07:51:38.811Z,99.90
2022-10-09T07:54:07.254Z,99.90
2022-10-09T07:56:38.056Z,99.90
2022-10-09T07:59:08.711Z,99.90
2022-10-09T08:01:37.554Z,99.90
2022-10-09T08:04:06.283Z,99.90
2022-10-09T08:06:35.305Z,99.90
2022-10-09T08:09:06.374Z,99.90
2022-10-09T08:11:35.306Z,99.90
2022-10-09T08:14:03.588Z,99.90
2022-10-09T08:16:33.466Z,99.90
2022-10-09T08:19:03.356Z,99.90
2022-10-09T08:21:33.026Z,99.90
2022-10-09T08:24:01.986Z,99.90
2022-10-09T08:26:32.450Z,99.90
2022-10-09T08:29:02.504Z,99.90
2022-10-09T08:31:31.883Z,99.90
2022-10-09T08:34:02.564Z,99.90
2022-10-09T08:36:31.585Z,99.90
2022-10-09T08:39:00.408Z,99.90
2022-10-09T08:41:43.201Z,99.90
2022-10-09T08:44:17.016Z,99.90
2022-10-09T08:46:58.651Z,99.90
2022-10-09T08:49:32.481Z,99.90
2022-10-09T08:52:07.397Z,99.90
2022-10-09T08:54:38.310Z,99.90
2022-10-09T08:57:14.534Z,99.90
2022-10-09T08:59:43.858Z,99.90
2022-10-09T09:02:30.652Z,99.90
2022-10-09T09:05:13.667Z,99.90
2022-10-09T09:07:52.353Z,99.90
2022-10-09T09:10:31.001Z,99.90
2022-10-09T09:13:09.272Z,99.90
2022-10-09T09:15:46.024Z,99.90
2022-10-09T09:18:27.937Z,99.90
2022-10-09T09:20:58.404Z,99.90
2022-10-09T09:23:30.856Z,99.90
2022-10-09T09:26:01.775Z,99.90
2022-10-09T09:28:37.638Z,99.90
2022-10-09T09:31:17.611Z,99.90
2022-10-09T09:33:55.638Z,99.90
2022-10-09T09:36:29.308Z,99.90
2022-10-09T09:39:49.926Z,99.90
2022-10-09T09:41:51.392Z,99.90
2022-10-09T09:44:21.601Z,99.90
2022-10-09T09:46:51.341Z,99.90
2022-10-09T09:49:21.927Z,99.90
2022-10-09T09:51:52.176Z,99.90
2022-10-09T09:54:23.887Z,99.90
2022-10-09T09:57:12.002Z,99.90
2022-10-09T09:59:45.206Z,99.90
2022-10-09T10:02:18.355Z,99.90
2022-10-09T10:04:54.565Z,99.90
2022-10-09T10:07:34.054Z,99.90
2022-10-09T10:10:08.374Z,99.90
2022-10-09T10:12:42.598Z,99.90
2022-10-09T10:15:24.878Z,99.90
2022-10-09T10:18:01.013Z,99.90
2022-10-09T10:20:30.786Z,99.90
2022-10-09T10:22:59.923Z,99.90
2022-10-09T10:25:33.542Z,99.90
2022-10-09T10:28:07.039Z,99.90
2022-10-09T10:30:38.893Z,99.90
2022-10-09T10:33:16.123Z,99.90
2022-10-09T10:35:45.148Z,99.90
2022-10-09T10:38:18.269Z,99.90
2022-10-09T10:40:52.188Z,99.90
2022-10-09T10:43:34.718Z,99.90
2022-10-09T10:46:13.460Z,99.90
2022-10-09T10:48:45.667Z,99.90
2022-10-09T10:51:29.671Z,99.90
2022-10-09T10:54:10.005Z,99.90
2022-10-09T10:56:42.282Z,99.90
2022-10-09T10:59:35.972Z,99.90
2022-10-09T11:02:45.335Z,99.90
2022-10-09T11:05:27.188Z,99.90
2022-10-09T11:08:11.505Z,99.90
2022-10-09T11:10:51.627Z,99.90
2022-10-09T11:13:26.812Z,99.90
2022-10-09T11:16:06.394Z,99.90
2022-10-09T11:18:53.322Z,99.90
2022-10-09T11:21:32.934Z,99.90
2022-10-09T11:24:27.076Z,99.90
2022-10-09T11:27:03.737Z,99.90
2022-10-09T11:29:38.413Z,99.90
2022-10-09T11:32:15.254Z,99.90
2022-10-09T11:34:52.343Z,99.90
2022-10-09T11:37:24.103Z,99.90
2022-10-09T11:39:52.899Z,99.90
2022-10-09T11:42:24.315Z,99.90
2022-10-09T11:45:04.040Z,99.90
2022-10-09T11:47:39.086Z,99.90
2022-10-09T11:50:33.032Z,99.90
2022-10-09T11:53:06.936Z,99.90
2022-10-09T11:55:35.937Z,99.90
2022-10-09T11:58:21.342Z,99.90
2022-10-09T12:00:51.612Z,99.90
2022-10-09T12:03:30.212Z,99.90
2022-10-09T12:06:08.370Z,99.90
2022-10-09T12:08:37.974Z,99.90
2022-10-09T12:11:15.423Z,99.90
2022-10-09T12:13:51.361Z,99.90
2022-10-09T12:16:38.722Z,99.90
2022-10-09T12:19:20.929Z,99.90
2022-10-09T12:21:56.127Z,99.90
2022-10-09T12:24:27.258Z,99.90
2022-10-09T12:27:00.930Z,99.90
2022-10-09T12:29:32.847Z,99.90
2022-10-09T12:32:06.419Z,99.90
2022-10-09T12:34:39.108Z,99.90
2022-10-09T12:37:17.873Z,99.90
2022-10-09T12:39:47.046Z,99.90
2022-10-09T12:42:22.925Z,99.90
2022-10-09T12:44:53.653Z,99.90
2022-10-09T12:47:25.811Z,99.90
2022-10-09T12:50:02.979Z,99.90
2022-10-09T12:52:33.301Z,99.90
2022-10-09T12:55:03.651Z,99.90
2022-10-09T12:57:32.213Z,99.90
2022-10-09T13:00:00.695Z,99.80
2022-10-09T13:02:29.205Z,99.00
2022-10-09T13:05:00.473Z,99.10
2022-10-09T13:07:32.514Z,99.10
2022-10-09T13:10:06.614Z,99.00
2022-10-09T13:12:35.608Z,98.80
2022-10-09T13:15:06.368Z,98.60
2022-10-09T13:17:36.943Z,98.60
2022-10-09T13:20:27.643Z,98.40
2022-10-09T13:22:57.143Z,98.30
2022-10-09T13:25:28.084Z,98.20
2022-10-09T13:27:56.436Z,98.10
2022-10-09T13:30:24.824Z,98.10
2022-10-09T13:32:53.138Z,97.90
2022-10-09T13:35:21.498Z,97.90
2022-10-09T13:37:50.327Z,97.30
2022-10-09T13:40:22.387Z,97.00
2022-10-09T13:42:57.379Z,97.00
2022-10-09T13:45:25.781Z,96.80
2022-10-09T13:47:54.190Z,96.10
2022-10-09T13:50:22.641Z,96.00
2022-10-09T13:52:50.995Z,95.40
2022-10-09T13:55:19.554Z,95.50
2022-10-09T13:57:48.488Z,95.60
2022-10-09T14:00:18.561Z,95.20
2022-10-09T14:02:47.219Z,95.10
2022-10-09T14:05:15.636Z,95.50
2022-10-09T14:07:44.083Z,94.20
2022-10-09T14:10:12.672Z,94.40
2022-10-09T14:12:43.432Z,94.60
2022-10-09T14:15:12.483Z,94.70
2022-10-09T14:17:44.049Z,94.90
2022-10-09T14:20:15.161Z,95.20
2022-10-09T14:22:43.558Z,95.10
2022-10-09T14:25:12.376Z,95.10
2022-10-09T14:27:43.894Z,95.10
2022-10-09T14:30:14.100Z,94.70
2022-10-09T14:32:44.686Z,94.50
2022-10-09T14:35:14.602Z,94.40
2022-10-09T14:37:44.720Z,94.30
2022-10-09T14:40:14.351Z,93.60
2022-10-09T14:42:43.141Z,93.40
2022-10-09T14:45:12.808Z,93.50
2022-10-09T14:47:41.628Z,93.70
2022-10-09T14:50:12.748Z,93.70
2022-10-09T14:52:42.486Z,93.90
2022-10-09T14:55:11.469Z,94.10
2022-10-09T14:57:40.306Z,93.90
2022-10-09T15:00:10.372Z,93.80
2022-10-09T15:02:39.752Z,93.70
2022-10-09T15:05:09.503Z,93.60
2022-10-09T15:07:40.097Z,93.60
2022-10-09T15:10:09.964Z,93.60
2022-10-09T15:12:38.541Z,93.60
2022-10-09T15:15:07.712Z,93.40
2022-10-09T15:17:36.267Z,93.50
2022-10-09T15:20:05.142Z,93.40
2022-10-09T15:22:33.753Z,93.90
2022-10-09T15:25:03.761Z,94.10
2022-10-09T15:27:32.496Z,94.40
2022-10-09T15:30:00.999Z,94.60
2022-10-09T15:32:29.772Z,94.70
2022-10-09T15:34:58.337Z,94.70
2022-10-09T15:37:26.985Z,94.50
2022-10-09T15:39:55.762Z,94.50
2022-10-09T15:42:25.817Z,94.50
2022-10-09T15:44:54.562Z,94.60
2022-10-09T15:47:39.273Z,94.80
2022-10-09T15:50:12.244Z,94.60
2022-10-09T15:52:40.829Z,94.40
2022-10-09T15:55:09.864Z,94.60
2022-10-09T15:57:39.872Z,94.60
2022-10-09T16:00:10.047Z,95.00
2022-10-09T16:02:38.444Z,94.90
2022-10-09T16:05:07.483Z,95.10
2022-10-09T16:07:35.813Z,95.40
2022-10-09T16:10:04.347Z,95.90
2022-10-09T16:12:32.682Z,96.50
2022-10-09T16:15:02.651Z,97.00
2022-10-09T16:17:31.449Z,97.60
2022-10-09T16:20:00.308Z,98.20
2022-10-09T16:22:28.648Z,98.80
2022-10-09T16:24:57.012Z,99.20
2022-10-09T16:27:25.335Z,99.40
2022-10-09T16:29:53.635Z,99.60
2022-10-09T16:32:23.291Z,99.70
2022-10-09T16:34:51.679Z,99.90
2022-10-09T16:37:19.951Z,99.90
2022-10-09T16:39:49.466Z,99.90
2022-10-09T16:42:17.850Z,99.90
2022-10-09T16:44:46.141Z,99.90
2022-10-09T16:47:14.501Z,99.90
2022-10-09T16:49:44.183Z,99.90
2022-10-09T16:52:12.572Z,99.90
2022-10-09T16:54:40.994Z,99.90
2022-10-09T16:57:09.360Z,99.90
2022-10-09T16:59:37.670Z,99.90
2022-10-09T17:02:05.971Z,99.90
2022-10-09T17:04:34.359Z,99.90
2022-10-09T17:07:04.508Z,99.90
2022-10-09T17:09:33.578Z,99.90
2022-10-09T17:12:02.034Z,99.90
2022-10-09T17:14:30.361Z,99.90
2022-10-09T17:16:58.669Z,99.90
2022-10-09T17:19:27.011Z,99.90
2022-10-09T17:21:55.376Z,99.90
2022-10-09T17:24:25.156Z,99.90
2022-10-09T17:26:53.769Z,99.90
2022-10-09T17:29:23.025Z,99.90
2022-10-09T17:31:51.647Z,99.90
2022-10-09T17:34:20.412Z,99.90
2022-10-09T17:36:48.669Z,99.90
2022-10-09T17:39:19.003Z,99.90
2022-10-09T17:41:49.825Z,99.90
2022-10-09T17:44:18.383Z,99.90
2022-10-09T17:46:46.689Z,99.90
2022-10-09T17:49:15.034Z,99.90
2022-10-09T17:51:43.326Z,99.90
2022-10-09T17:54:14.145Z,99.90
2022-10-09T17:56:42.438Z,99.90
2022-10-09T17:59:12.705Z,99.90
2022-10-09T18:01:41.162Z,99.90
2022-10-09T18:04:10.877Z,99.90
2022-10-09T18:06:39.211Z,99.90
2022-10-09T18:09:07.494Z,99.90
2022-10-09T18:11:35.816Z,99.90
2022-10-09T18:14:05.476Z,99.90
2022-10-09T18:16:38.071Z,99.90
2022-10-09T18:19:07.968Z,99.90
2022-10-09T18:21:36.764Z,99.90
2022-10-09T18:24:05.557Z,99.90
2022-10-09T18:26:34.492Z,99.90
2022-10-09T18:29:03.120Z,99.90
2022-10-09T18:31:31.703Z,99.90
2022-10-09T18:34:02.039Z,99.90
2022-10-09T18:36:33.748Z,99.90
2022-10-09T18:39:04.288Z,99.70
2022-10-09T18:41:32.621Z,99.70
2022-10-09T18:44:01.523Z,99.60
2022-10-09T18:46:35.193Z,99.70
2022-10-09T18:49:09.363Z,99.70
2022-10-09T18:51:40.873Z,99.80
2022-10-09T18:54:13.219Z,99.80
2022-10-09T18:56:42.831Z,99.80
2022-10-09T18:59:14.446Z,99.80
2022-10-09T19:01:42.801Z,99.80
2022-10-09T19:04:12.761Z,99.70
2022-10-09T19:06:41.115Z,99.70
2022-10-09T19:09:09.403Z,99.80
2022-10-09T19:11:37.790Z,99.90
2022-10-09T19:14:06.564Z,99.90
2022-10-09T19:16:35.936Z,99.90
2022-10-09T19:19:04.613Z,99.90
2022-10-09T19:21:34.704Z,99.90
2022-10-09T19:24:06.141Z,99.90
2022-10-09T19:26:35.488Z,99.90
2022-10-09T19:29:04.262Z,99.90
2022-10-09T19:31:33.151Z,99.90
2022-10-09T19:34:01.761Z,99.90
2022-10-09T19:36:33.250Z,99.90
2022-10-09T19:39:03.016Z,99.90
2022-10-09T19:41:31.423Z,99.90
2022-10-09T19:44:00.408Z,99.90
2022-10-09T19:46:29.105Z,99.90
2022-10-09T19:48:57.463Z,99.90
2022-10-09T19:51:27.601Z,99.90
2022-10-09T19:53:56.449Z,99.90
2022-10-09T19:56:28.353Z,99.90
2022-10-09T19:58:57.792Z,99.90
2022-10-09T20:01:28.091Z,99.90
2022-10-09T20:04:00.792Z,99.90
2022-10-09T20:06:29.618Z,99.90
2022-10-09T20:08:58.303Z,99.90
2022-10-09T20:11:28.710Z,99.90
2022-10-09T20:13:57.441Z,99.90
2022-10-09T20:16:29.930Z,99.90
2022-10-09T20:18:58.231Z,99.90
2022-10-09T20:21:27.117Z,99.90
2022-10-09T20:23:58.065Z,99.90
2022-10-09T20:26:27.071Z,99.90
2022-10-09T20:28:56.820Z,99.90
2022-10-09T20:31:27.619Z,99.90
2022-10-09T20:33:57.007Z,99.90
2022-10-09T20:36:28.400Z,99.90
2022-10-09T20:38:59.208Z,99.90
2022-10-09T20:41:29.115Z,99.90
2022-10-09T20:44:01.209Z,99.90
2022-10-09T20:46:31.614Z,99.90
2022-10-09T20:49:01.095Z,99.90
2022-10-09T20:51:29.755Z,99.90
2022-10-09T20:54:00.647Z,99.90
2022-10-09T20:56:31.538Z,99.90
2022-10-09T20:59:02.852Z,99.90
2022-10-09T21:01:32.244Z,99.90
2022-10-09T21:04:00.969Z,99.90
2022-10-09T21:06:30.195Z,99.90
2022-10-09T21:08:58.688Z,99.90
2022-10-09T21:11:27.512Z,99.90
2022-10-09T21:13:56.945Z,99.90
2022-10-09T21:16:27.156Z,99.90
2022-10-09T21:18:57.712Z,99.90
2022-10-09T21:21:27.537Z,99.90
2022-10-09T21:24:00.840Z,99.90
2022-10-09T21:26:31.006Z,99.90
2022-10-09T21:29:00.303Z,99.90
2022-10-09T21:31:32.632Z,99.90
2022-10-09T21:34:03.362Z,99.90
2022-10-09T21:36:41.073Z,99.90
2022-10-09T21:39:19.602Z,99.90
2022-10-09T21:41:49.084Z,99.90
2022-10-09T21:44:18.270Z,99.90
2022-10-09T21:46:49.110Z,99.90
2022-10-09T21:49:21.671Z,99.90
2022-10-09T21:51:51.539Z,99.90
2022-10-09T21:54:20.439Z,99.90
2022-10-09T21:56:49.453Z,99.90
2022-10-09T21:59:17.694Z,99.90
2022-10-09T22:01:48.163Z,99.90
2022-10-09T22:04:16.612Z,99.90
2022-10-09T22:06:44.916Z,99.90
2022-10-09T22:09:13.537Z,99.90
2022-10-09T22:11:41.904Z,99.90
2022-10-09T22:14:10.329Z,99.90
2022-10-09T22:16:38.651Z,99.90
2022-10-09T22:19:08.400Z,99.90
2022-10-09T22:21:36.712Z,99.90
2022-10-09T22:24:05.242Z,99.90
2022-10-09T22:26:33.548Z,99.90
2022-10-09T22:29:01.793Z,99.90
2022-10-09T22:31:30.222Z,99.90
2022-10-09T22:34:01.906Z,99.90
2022-10-09T22:36:34.163Z,99.90
2022-10-09T22:39:05.327Z,99.90
2022-10-09T22:41:35.904Z,99.90
2022-10-09T22:44:06.563Z,99.90
2022-10-09T22:46:36.614Z,99.90
2022-10-09T22:49:06.049Z,99.90
2022-10-09T22:51:36.276Z,99.90
2022-10-09T22:54:04.943Z,99.90
2022-10-09T22:56:35.503Z,99.90
2022-10-09T22:59:03.806Z,99.90
2022-10-09T23:01:35.456Z,99.90
2022-10-09T23:04:06.029Z,99.90
2022-10-09T23:06:35.835Z,99.90
2022-10-09T23:09:06.526Z,99.90
2022-10-09T23:11:35.328Z,99.90
2022-10-09T23:14:04.244Z,99.90
2022-10-09T23:16:33.540Z,99.90
2022-10-09T23:19:06.769Z,99.90
2022-10-09T23:21:37.881Z,99.90
2022-10-09T23:24:07.755Z,99.90
2022-10-09T23:26:37.793Z,99.90
2022-10-09T23:29:07.982Z,99.90
2022-10-09T23:31:37.179Z,99.90
2022-10-09T23:34:06.531Z,99.90
2022-10-09T23:36:36.752Z,99.90
2022-10-09T23:39:06.858Z,99.90
2022-10-09T23:41:35.811Z,99.90
2022-10-09T23:44:04.538Z,99.90
2022-10-09T23:46:34.315Z,99.90
2022-10-09T23:49:02.883Z,99.90
2022-10-09T23:51:31.906Z,99.90
2022-10-09T23:54:01.993Z,99.90
2022-10-09T23:56:32.772Z,99.90
2022-10-09T23:59:02.561Z,99.90
